sensor_id;sensor_type;location;lat;lon;timestamp;pressure;altitude;pressure_sealevel;temperature;humidity
38880;BME280;25887;30.194;-97.880;2022-12-17T00:00:04;98824.94;;;11.75;44.54
38880;BME280;25887;30.194;-97.880;2022-12-17T00:02:49;98843.81;;;11.70;44.39
38880;BME280;25887;30.194;-97.880;2022-12-17T00:05:33;98856.69;;;11.67;44.61
38880;BME280;25887;30.194;-97.880;2022-12-17T00:08:17;98849.81;;;11.63;44.54
38880;BME280;25887;30.194;-97.880;2022-12-17T00:11:01;98850.66;;;11.62;44.38
38880;BME280;25887;30.194;-97.880;2022-12-17T00:13:45;98836.94;;;11.60;44.73
38880;BME280;25887;30.194;-97.880;2022-12-17T00:16:29;98835.19;;;11.56;44.35
38880;BME280;25887;30.194;-97.880;2022-12-17T00:19:13;98833.47;;;11.54;44.41
38880;BME280;25887;30.194;-97.880;2022-12-17T00:21:57;98830.06;;;11.52;44.47
38880;BME280;25887;30.194;-97.880;2022-12-17T00:24:41;98837.75;;;11.50;44.63
38880;BME280;25887;30.194;-97.880;2022-12-17T00:27:25;98833.44;;;11.49;44.68
38880;BME280;25887;30.194;-97.880;2022-12-17T00:30:09;98837.75;;;11.47;44.40
38880;BME280;25887;30.194;-97.880;2022-12-17T00:32:53;98847.16;;;11.43;44.38
38880;BME280;25887;30.194;-97.880;2022-12-17T00:35:37;98841.13;;;11.41;44.56
38880;BME280;25887;30.194;-97.880;2022-12-17T00:38:22;98861.72;;;11.40;44.42
38880;BME280;25887;30.194;-97.880;2022-12-17T00:41:06;98878.00;;;11.39;44.45
38880;BME280;25887;30.194;-97.880;2022-12-17T00:43:50;98880.59;;;11.39;44.67
38880;BME280;25887;30.194;-97.880;2022-12-17T00:46:34;98882.31;;;11.37;44.79
38880;BME280;25887;30.194;-97.880;2022-12-17T00:49:18;98885.72;;;11.37;44.64
38880;BME280;25887;30.194;-97.880;2022-12-17T00:52:02;98892.59;;;11.37;44.68
38880;BME280;25887;30.194;-97.880;2022-12-17T00:54:46;98890.84;;;11.36;44.56
38880;BME280;25887;30.194;-97.880;2022-12-17T00:57:30;98890.84;;;11.34;44.74
38880;BME280;25887;30.194;-97.880;2022-12-17T01:00:14;98896.84;;;11.32;44.50
38880;BME280;25887;30.194;-97.880;2022-12-17T01:03:05;98900.28;;;11.31;44.74
38880;BME280;25887;30.194;-97.880;2022-12-17T01:05:50;98897.66;;;11.28;44.42
38880;BME280;25887;30.194;-97.880;2022-12-17T01:08:34;98908.81;;;11.25;44.47
38880;BME280;25887;30.194;-97.880;2022-12-17T01:11:18;98906.22;;;11.24;44.42
38880;BME280;25887;30.194;-97.880;2022-12-17T01:14:05;98898.50;;;11.22;44.57
38880;BME280;25887;30.194;-97.880;2022-12-17T01:16:49;98903.66;;;11.21;44.53
38880;BME280;25887;30.194;-97.880;2022-12-17T01:19:33;98920.75;;;11.20;44.44
38880;BME280;25887;30.194;-97.880;2022-12-17T01:22:17;98926.78;;;11.21;44.57
38880;BME280;25887;30.194;-97.880;2022-12-17T01:25:01;98934.50;;;11.21;44.52
38880;BME280;25887;30.194;-97.880;2022-12-17T01:27:48;98927.63;;;11.18;44.58
38880;BME280;25887;30.194;-97.880;2022-12-17T01:30:34;98915.63;;;11.17;44.59
38880;BME280;25887;30.194;-97.880;2022-12-17T01:33:18;98914.75;;;11.16;44.63
38880;BME280;25887;30.194;-97.880;2022-12-17T01:36:02;98911.31;;;11.18;44.57
38880;BME280;25887;30.194;-97.880;2022-12-17T01:38:46;98935.31;;;11.16;44.52
38880;BME280;25887;30.194;-97.880;2022-12-17T01:41:31;98939.63;;;11.19;44.54
38880;BME280;25887;30.194;-97.880;2022-12-17T01:47:17;98964.47;;;11.20;44.59
38880;BME280;25887;30.194;-97.880;2022-12-17T01:50:18;98971.34;;;11.20;44.33
38880;BME280;25887;30.194;-97.880;2022-12-17T01:53:04;98979.91;;;11.19;44.55
38880;BME280;25887;30.194;-97.880;2022-12-17T01:55:49;98974.75;;;11.19;44.45
38880;BME280;25887;30.194;-97.880;2022-12-17T01:58:34;98931.91;;;11.18;44.39
38880;BME280;25887;30.194;-97.880;2022-12-17T02:01:19;98945.63;;;11.16;44.33
38880;BME280;25887;30.194;-97.880;2022-12-17T02:04:03;98955.91;;;11.15;44.34
38880;BME280;25887;30.194;-97.880;2022-12-17T02:06:56;98960.19;;;11.16;44.31
38880;BME280;25887;30.194;-97.880;2022-12-17T02:09:52;98948.19;;;11.15;44.37
38880;BME280;25887;30.194;-97.880;2022-12-17T02:12:43;98967.91;;;11.18;44.39
38880;BME280;25887;30.194;-97.880;2022-12-17T02:15:57;98985.91;;;11.16;44.45
38880;BME280;25887;30.194;-97.880;2022-12-17T02:18:44;98991.91;;;11.13;44.06
38880;BME280;25887;30.194;-97.880;2022-12-17T02:21:34;98986.72;;;11.12;44.05
38880;BME280;25887;30.194;-97.880;2022-12-17T02:24:25;98961.84;;;11.09;43.91
38880;BME280;25887;30.194;-97.880;2022-12-17T02:27:11;98963.56;;;11.07;43.91
38880;BME280;25887;30.194;-97.880;2022-12-17T02:29:58;98970.41;;;11.05;43.91
38880;BME280;25887;30.194;-97.880;2022-12-17T02:32:44;98980.66;;;11.02;43.78
38880;BME280;25887;30.194;-97.880;2022-12-17T02:35:52;98996.06;;;11.01;43.92
38880;BME280;25887;30.194;-97.880;2022-12-17T02:38:34;98988.34;;;10.99;43.88
38880;BME280;25887;30.194;-97.880;2022-12-17T02:41:20;98995.19;;;10.97;43.80
38880;BME280;25887;30.194;-97.880;2022-12-17T02:44:05;98984.91;;;10.97;43.81
38880;BME280;25887;30.194;-97.880;2022-12-17T02:46:50;98979.72;;;10.96;43.63
38880;BME280;25887;30.194;-97.880;2022-12-17T02:49:36;98975.44;;;10.95;43.78
38880;BME280;25887;30.194;-97.880;2022-12-17T02:52:20;98978.00;;;10.90;43.66
38880;BME280;25887;30.194;-97.880;2022-12-17T02:55:05;98977.09;;;10.88;43.48
38880;BME280;25887;30.194;-97.880;2022-12-17T02:57:49;99008.78;;;10.87;43.37
38880;BME280;25887;30.194;-97.880;2022-12-17T03:00:33;99027.63;;;10.86;43.56
38880;BME280;25887;30.194;-97.880;2022-12-17T03:03:17;99035.34;;;10.84;43.47
38880;BME280;25887;30.194;-97.880;2022-12-17T03:06:09;99042.19;;;10.84;43.61
38880;BME280;25887;30.194;-97.880;2022-12-17T03:08:53;99063.63;;;10.83;43.39
38880;BME280;25887;30.194;-97.880;2022-12-17T03:11:37;99073.03;;;10.82;43.46
38880;BME280;25887;30.194;-97.880;2022-12-17T03:14:21;99061.03;;;10.83;43.42
38880;BME280;25887;30.194;-97.880;2022-12-17T03:17:05;99053.28;;;10.80;43.38
38880;BME280;25887;30.194;-97.880;2022-12-17T03:19:50;99039.56;;;10.79;43.34
38880;BME280;25887;30.194;-97.880;2022-12-17T03:22:34;99024.13;;;10.78;43.37
38880;BME280;25887;30.194;-97.880;2022-12-17T03:25:18;99031.84;;;10.78;43.31
38880;BME280;25887;30.194;-97.880;2022-12-17T03:28:03;99041.25;;;10.76;43.49
38880;BME280;25887;30.194;-97.880;2022-12-17T03:30:47;99055.84;;;10.77;43.39
38880;BME280;25887;30.194;-97.880;2022-12-17T03:33:31;99054.97;;;10.78;43.44
38880;BME280;25887;30.194;-97.880;2022-12-17T03:36:15;99063.56;;;10.78;43.38
38880;BME280;25887;30.194;-97.880;2022-12-17T03:38:59;99053.25;;;10.77;43.22
38880;BME280;25887;30.194;-97.880;2022-12-17T03:41:44;99072.94;;;10.75;43.24
38880;BME280;25887;30.194;-97.880;2022-12-17T03:44:29;99088.38;;;10.75;43.25
38880;BME280;25887;30.194;-97.880;2022-12-17T03:47:13;99090.94;;;10.75;43.15
38880;BME280;25887;30.194;-97.880;2022-12-17T03:49:57;99072.09;;;10.76;43.13
38880;BME280;25887;30.194;-97.880;2022-12-17T03:52:41;99050.63;;;10.72;43.13
38880;BME280;25887;30.194;-97.880;2022-12-17T03:55:25;99065.19;;;10.72;43.07
38880;BME280;25887;30.194;-97.880;2022-12-17T03:58:09;99061.75;;;10.70;42.90
38880;BME280;25887;30.194;-97.880;2022-12-17T04:00:53;99079.75;;;10.70;42.96
38880;BME280;25887;30.194;-97.880;2022-12-17T04:03:37;99091.72;;;10.69;42.91
38880;BME280;25887;30.194;-97.880;2022-12-17T04:06:21;99093.44;;;10.69;42.97
38880;BME280;25887;30.194;-97.880;2022-12-17T04:09:05;99104.59;;;10.69;42.80
38880;BME280;25887;30.194;-97.880;2022-12-17T04:11:49;99096.88;;;10.69;43.00
38880;BME280;25887;30.194;-97.880;2022-12-17T04:14:33;99084.88;;;10.67;43.09
38880;BME280;25887;30.194;-97.880;2022-12-17T04:17:17;99065.09;;;10.63;42.97
38880;BME280;25887;30.194;-97.880;2022-12-17T04:20:01;99066.81;;;10.60;42.85
38880;BME280;25887;30.194;-97.880;2022-12-17T04:22:45;99079.63;;;10.59;42.66
38880;BME280;25887;30.194;-97.880;2022-12-17T04:25:29;99083.88;;;10.55;42.99
38880;BME280;25887;30.194;-97.880;2022-12-17T04:28:13;99087.28;;;10.56;43.04
38880;BME280;25887;30.194;-97.880;2022-12-17T04:30:57;99081.28;;;10.54;42.93
38880;BME280;25887;30.194;-97.880;2022-12-17T04:33:41;99075.28;;;10.53;42.92
38880;BME280;25887;30.194;-97.880;2022-12-17T04:36:25;99064.13;;;10.51;43.01
38880;BME280;25887;30.194;-97.880;2022-12-17T04:39:09;99075.22;;;10.50;42.91
38880;BME280;25887;30.194;-97.880;2022-12-17T04:41:53;99070.97;;;10.51;42.98
38880;BME280;25887;30.194;-97.880;2022-12-17T04:44:38;99052.09;;;10.50;42.81
38880;BME280;25887;30.194;-97.880;2022-12-17T04:47:22;99053.81;;;10.50;43.09
38880;BME280;25887;30.194;-97.880;2022-12-17T04:50:06;99050.38;;;10.48;42.91
38880;BME280;25887;30.194;-97.880;2022-12-17T04:52:57;99052.94;;;10.46;42.88
38880;BME280;25887;30.194;-97.880;2022-12-17T04:55:42;99063.22;;;10.49;43.09
38880;BME280;25887;30.194;-97.880;2022-12-17T04:58:26;99063.22;;;10.48;42.86
38880;BME280;25887;30.194;-97.880;2022-12-17T05:01:10;99070.94;;;10.48;43.12
38880;BME280;25887;30.194;-97.880;2022-12-17T05:03:54;99101.75;;;10.48;43.03
38880;BME280;25887;30.194;-97.880;2022-12-17T05:06:38;99118.03;;;10.50;42.94
38880;BME280;25887;30.194;-97.880;2022-12-17T05:09:22;99125.75;;;10.50;42.78
38880;BME280;25887;30.194;-97.880;2022-12-17T05:12:06;99130.88;;;10.50;43.13
38880;BME280;25887;30.194;-97.880;2022-12-17T05:14:50;99136.88;;;10.50;42.87
38880;BME280;25887;30.194;-97.880;2022-12-17T05:17:34;99125.78;;;10.51;43.14
38880;BME280;25887;30.194;-97.880;2022-12-17T05:20:18;99105.19;;;10.50;42.93
38880;BME280;25887;30.194;-97.880;2022-12-17T05:23:05;99108.59;;;10.47;43.04
38880;BME280;25887;30.194;-97.880;2022-12-17T05:25:54;99098.31;;;10.47;42.77
38880;BME280;25887;30.194;-97.880;2022-12-17T05:28:39;99087.19;;;10.47;42.74
38880;BME280;25887;30.194;-97.880;2022-12-17T05:31:23;99084.63;;;10.47;42.88
38880;BME280;25887;30.194;-97.880;2022-12-17T05:37:10;99088.91;;;10.46;42.85
38880;BME280;25887;30.194;-97.880;2022-12-17T05:39:54;99081.19;;;10.45;42.68
38880;BME280;25887;30.194;-97.880;2022-12-17T05:42:38;99082.88;;;10.44;42.98
38880;BME280;25887;30.194;-97.880;2022-12-17T05:45:22;99079.47;;;10.44;42.71
38880;BME280;25887;30.194;-97.880;2022-12-17T05:48:06;99076.03;;;10.43;42.94
38880;BME280;25887;30.194;-97.880;2022-12-17T05:53:53;99066.56;;;10.39;42.44
38880;BME280;25887;30.194;-97.880;2022-12-17T05:56:37;99059.69;;;10.38;42.96
38880;BME280;25887;30.194;-97.880;2022-12-17T05:59:21;99054.56;;;10.38;43.06
38880;BME280;25887;30.194;-97.880;2022-12-17T06:02:05;99046.84;;;10.37;42.91
38880;BME280;25887;30.194;-97.880;2022-12-17T06:04:51;99037.41;;;10.36;42.99
38880;BME280;25887;30.194;-97.880;2022-12-17T06:07:36;99032.22;;;10.34;42.74
38880;BME280;25887;30.194;-97.880;2022-12-17T06:10:20;99021.94;;;10.31;42.77
38880;BME280;25887;30.194;-97.880;2022-12-17T06:13:04;99029.63;;;10.29;42.70
38880;BME280;25887;30.194;-97.880;2022-12-17T06:15:48;99021.06;;;10.27;42.47
38880;BME280;25887;30.194;-97.880;2022-12-17T06:18:33;99020.16;;;10.27;42.86
38880;BME280;25887;30.194;-97.880;2022-12-17T06:21:18;99015.88;;;10.24;42.76
38880;BME280;25887;30.194;-97.880;2022-12-17T06:24:02;99037.22;;;10.22;42.92
38880;BME280;25887;30.194;-97.880;2022-12-17T06:26:46;99047.47;;;10.20;42.96
38880;BME280;25887;30.194;-97.880;2022-12-17T06:29:30;99047.47;;;10.20;42.89
38880;BME280;25887;30.194;-97.880;2022-12-17T06:32:14;99056.91;;;10.21;42.94
38880;BME280;25887;30.194;-97.880;2022-12-17T06:34:58;99070.59;;;10.20;43.00
38880;BME280;25887;30.194;-97.880;2022-12-17T06:37:42;99071.38;;;10.18;43.07
38880;BME280;25887;30.194;-97.880;2022-12-17T06:40:27;99067.09;;;10.17;42.68
38880;BME280;25887;30.194;-97.880;2022-12-17T06:43:11;99062.81;;;10.16;42.87
38880;BME280;25887;30.194;-97.880;2022-12-17T06:45:55;99054.22;;;10.14;42.80
38880;BME280;25887;30.194;-97.880;2022-12-17T06:48:39;99047.38;;;10.13;42.91
38880;BME280;25887;30.194;-97.880;2022-12-17T06:51:23;99042.19;;;10.10;42.76
38880;BME280;25887;30.194;-97.880;2022-12-17T06:54:07;99049.03;;;10.09;42.95
38880;BME280;25887;30.194;-97.880;2022-12-17T06:56:51;99042.16;;;10.07;42.65
38880;BME280;25887;30.194;-97.880;2022-12-17T06:59:35;99033.59;;;10.06;43.14
38880;BME280;25887;30.194;-97.880;2022-12-17T07:02:19;99031.91;;;10.07;42.67
38880;BME280;25887;30.194;-97.880;2022-12-17T07:05:04;99025.03;;;10.05;42.86
38880;BME280;25887;30.194;-97.880;2022-12-17T07:07:58;99028.47;;;10.06;42.88
38880;BME280;25887;30.194;-97.880;2022-12-17T07:10:43;99031.03;;;10.04;42.78
38880;BME280;25887;30.194;-97.880;2022-12-17T07:13:27;99033.53;;;10.03;42.95
38880;BME280;25887;30.194;-97.880;2022-12-17T07:16:11;99028.41;;;10.01;43.11
38880;BME280;25887;30.194;-97.880;2022-12-17T07:18:57;99047.22;;;10.00;43.17
38880;BME280;25887;30.194;-97.880;2022-12-17T07:21:41;99038.66;;;10.01;42.50
38880;BME280;25887;30.194;-97.880;2022-12-17T07:24:28;99026.69;;;10.00;42.97
38880;BME280;25887;30.194;-97.880;2022-12-17T07:27:12;99024.97;;;9.99;43.03
38880;BME280;25887;30.194;-97.880;2022-12-17T07:29:56;99023.25;;;10.00;42.83
38880;BME280;25887;30.194;-97.880;2022-12-17T07:32:41;99017.25;;;9.99;43.04
38880;BME280;25887;30.194;-97.880;2022-12-17T07:35:25;99015.53;;;9.98;42.68
38880;BME280;25887;30.194;-97.880;2022-12-17T07:38:09;99018.09;;;9.98;42.92
38880;BME280;25887;30.194;-97.880;2022-12-17T07:40:54;99011.25;;;9.97;42.72
38880;BME280;25887;30.194;-97.880;2022-12-17T07:43:38;99007.78;;;9.95;42.66
38880;BME280;25887;30.194;-97.880;2022-12-17T07:46:22;99019.72;;;9.93;42.94
38880;BME280;25887;30.194;-97.880;2022-12-17T07:49:06;99014.59;;;9.92;43.15
38880;BME280;25887;30.194;-97.880;2022-12-17T07:51:50;99012.00;;;9.90;42.76
38880;BME280;25887;30.194;-97.880;2022-12-17T07:54:35;99008.59;;;9.90;42.63
38880;BME280;25887;30.194;-97.880;2022-12-17T07:57:19;98989.72;;;9.88;42.71
38880;BME280;25887;30.194;-97.880;2022-12-17T08:00:03;98989.72;;;9.88;42.56
38880;BME280;25887;30.194;-97.880;2022-12-17T08:02:47;98991.41;;;9.87;42.61
38880;BME280;25887;30.194;-97.880;2022-12-17T08:05:31;98979.44;;;9.86;42.90
38880;BME280;25887;30.194;-97.880;2022-12-17T08:08:15;98985.41;;;9.85;42.79
38880;BME280;25887;30.194;-97.880;2022-12-17T08:11:00;98987.97;;;9.82;43.27
38880;BME280;25887;30.194;-97.880;2022-12-17T08:13:44;98996.50;;;9.81;43.28
38880;BME280;25887;30.194;-97.880;2022-12-17T08:16:28;98999.88;;;9.78;42.82
38880;BME280;25887;30.194;-97.880;2022-12-17T08:19:12;98997.28;;;9.77;43.11
38880;BME280;25887;30.194;-97.880;2022-12-17T08:21:56;98999.84;;;9.75;42.80
38880;BME280;25887;30.194;-97.880;2022-12-17T08:24:40;98994.69;;;9.74;42.62
38880;BME280;25887;30.194;-97.880;2022-12-17T08:27:24;98994.66;;;9.72;42.95
38880;BME280;25887;30.194;-97.880;2022-12-17T08:30:09;98992.06;;;9.71;42.59
38880;BME280;25887;30.194;-97.880;2022-12-17T08:32:53;99004.03;;;9.69;43.15
38880;BME280;25887;30.194;-97.880;2022-12-17T08:35:50;99004.03;;;9.70;43.10
38880;BME280;25887;30.194;-97.880;2022-12-17T08:38:34;99016.94;;;9.73;42.87
38880;BME280;25887;30.194;-97.880;2022-12-17T08:41:18;98999.81;;;9.74;43.38
38880;BME280;25887;30.194;-97.880;2022-12-17T08:44:02;98993.00;;;9.74;42.73
38880;BME280;25887;30.194;-97.880;2022-12-17T08:46:46;98987.00;;;9.74;42.67
38880;BME280;25887;30.194;-97.880;2022-12-17T08:49:30;98981.88;;;9.74;42.91
38880;BME280;25887;30.194;-97.880;2022-12-17T08:52:14;98989.56;;;9.74;43.00
38880;BME280;25887;30.194;-97.880;2022-12-17T08:54:58;98994.66;;;9.72;43.22
38880;BME280;25887;30.194;-97.880;2022-12-17T08:57:50;99001.47;;;9.72;43.15
38880;BME280;25887;30.194;-97.880;2022-12-17T09:00:34;99002.34;;;9.71;43.15
38880;BME280;25887;30.194;-97.880;2022-12-17T09:03:18;99016.00;;;9.70;43.43
38880;BME280;25887;30.194;-97.880;2022-12-17T09:06:02;99021.13;;;9.68;42.78
38880;BME280;25887;30.194;-97.880;2022-12-17T09:08:47;99031.38;;;9.68;42.86
38880;BME280;25887;30.194;-97.880;2022-12-17T09:11:30;99045.06;;;9.69;43.29
38880;BME280;25887;30.194;-97.880;2022-12-17T09:14:14;99042.53;;;9.70;43.25
38880;BME280;25887;30.194;-97.880;2022-12-17T09:16:58;99048.50;;;9.71;43.23
38880;BME280;25887;30.194;-97.880;2022-12-17T09:19:43;99030.56;;;9.71;42.83
38880;BME280;25887;30.194;-97.880;2022-12-17T09:22:27;99018.56;;;9.70;42.94
38880;BME280;25887;30.194;-97.880;2022-12-17T09:25:11;99021.97;;;9.69;43.48
38880;BME280;25887;30.194;-97.880;2022-12-17T09:27:58;99026.28;;;9.70;43.59
38880;BME280;25887;30.194;-97.880;2022-12-17T09:30:57;99010.00;;;9.68;43.43
38880;BME280;25887;30.194;-97.880;2022-12-17T09:33:41;98992.03;;;9.66;43.00
38880;BME280;25887;30.194;-97.880;2022-12-17T09:36:25;98999.69;;;9.65;43.20
38880;BME280;25887;30.194;-97.880;2022-12-17T09:39:10;99012.50;;;9.65;43.60
38880;BME280;25887;30.194;-97.880;2022-12-17T09:50:12;99042.31;;;9.57;43.31
38880;BME280;25887;30.194;-97.880;2022-12-17T09:52:58;99048.28;;;9.56;43.47
38880;BME280;25887;30.194;-97.880;2022-12-17T09:55:45;99044.00;;;9.53;44.05
38880;BME280;25887;30.194;-97.880;2022-12-17T09:58:30;99037.13;;;9.52;43.34
38880;BME280;25887;30.194;-97.880;2022-12-17T10:01:24;99037.97;;;9.51;43.38
38880;BME280;25887;30.194;-97.880;2022-12-17T10:04:14;99037.97;;;9.49;43.39
38880;BME280;25887;30.194;-97.880;2022-12-17T10:06:59;99031.94;;;9.49;43.50
38880;BME280;25887;30.194;-97.880;2022-12-17T10:09:49;99029.34;;;9.46;43.77
38880;BME280;25887;30.194;-97.880;2022-12-17T10:12:34;99027.66;;;9.46;43.30
38880;BME280;25887;30.194;-97.880;2022-12-17T10:15:18;99022.50;;;9.46;43.49
38880;BME280;25887;30.194;-97.880;2022-12-17T10:18:05;99019.09;;;9.46;44.00
38880;BME280;25887;30.194;-97.880;2022-12-17T10:20:54;99016.53;;;9.46;43.43
38880;BME280;25887;30.194;-97.880;2022-12-17T10:23:40;99021.66;;;9.46;43.77
38880;BME280;25887;30.194;-97.880;2022-12-17T10:26:25;99017.38;;;9.45;43.36
38880;BME280;25887;30.194;-97.880;2022-12-17T10:29:11;99031.91;;;9.44;43.40
38880;BME280;25887;30.194;-97.880;2022-12-17T10:32:07;99036.16;;;9.42;43.39
38880;BME280;25887;30.194;-97.880;2022-12-17T10:34:51;99039.53;;;9.41;43.61
38880;BME280;25887;30.194;-97.880;2022-12-17T10:37:35;99037.84;;;9.42;43.86
38880;BME280;25887;30.194;-97.880;2022-12-17T10:40:26;99034.41;;;9.41;43.42
38880;BME280;25887;30.194;-97.880;2022-12-17T10:43:24;99036.16;;;9.42;43.77
38880;BME280;25887;30.194;-97.880;2022-12-17T10:46:08;99021.63;;;9.43;43.52
38880;BME280;25887;30.194;-97.880;2022-12-17T10:49:09;99026.75;;;9.44;43.38
38880;BME280;25887;30.194;-97.880;2022-12-17T10:51:57;99023.34;;;9.44;43.44
38880;BME280;25887;30.194;-97.880;2022-12-17T10:54:41;99030.19;;;9.45;43.61
38880;BME280;25887;30.194;-97.880;2022-12-17T11:00:29;99041.34;;;9.48;44.05
38880;BME280;25887;30.194;-97.880;2022-12-17T11:06:22;99039.69;;;9.51;43.98
38880;BME280;25887;30.194;-97.880;2022-12-17T11:12:11;99035.44;;;9.53;43.82
38880;BME280;25887;30.194;-97.880;2022-12-17T11:14:58;99016.63;;;9.52;43.47
38880;BME280;25887;30.194;-97.880;2022-12-17T11:17:44;99009.78;;;9.51;43.85
38880;BME280;25887;30.194;-97.880;2022-12-17T11:20:49;99024.31;;;9.51;44.05
38880;BME280;25887;30.194;-97.880;2022-12-17T11:23:34;99017.47;;;9.51;43.80
38880;BME280;25887;30.194;-97.880;2022-12-17T11:26:19;99018.31;;;9.50;43.99
38880;BME280;25887;30.194;-97.880;2022-12-17T11:29:03;99023.44;;;9.50;43.60
38880;BME280;25887;30.194;-97.880;2022-12-17T11:34:56;99026.81;;;9.49;44.04
38880;BME280;25887;30.194;-97.880;2022-12-17T11:38:29;99027.66;;;9.46;43.59
38880;BME280;25887;30.194;-97.880;2022-12-17T11:40:54;99030.22;;;9.46;43.79
38880;BME280;25887;30.194;-97.880;2022-12-17T11:46:28;99019.06;;;9.44;44.09
38880;BME280;25887;30.194;-97.880;2022-12-17T11:58:09;98998.47;;;9.38;43.85
38880;BME280;25887;30.194;-97.880;2022-12-17T12:10:10;99011.28;;;9.38;44.00
38880;BME280;25887;30.194;-97.880;2022-12-17T12:16:11;99022.38;;;9.37;43.62
38880;BME280;25887;30.194;-97.880;2022-12-17T12:22:02;99032.69;;;9.40;43.75
38880;BME280;25887;30.194;-97.880;2022-12-17T12:27:55;99036.97;;;9.41;43.35
38880;BME280;25887;30.194;-97.880;2022-12-17T12:30:58;99039.56;;;9.43;43.31
38880;BME280;25887;30.194;-97.880;2022-12-17T12:36:31;99041.31;;;9.45;43.89
38880;BME280;25887;30.194;-97.880;2022-12-17T12:39:17;99067.00;;;9.48;43.92
38880;BME280;25887;30.194;-97.880;2022-12-17T12:42:47;99068.75;;;9.49;43.68
38880;BME280;25887;30.194;-97.880;2022-12-17T12:51:03;99074.78;;;9.53;44.05
38880;BME280;25887;30.194;-97.880;2022-12-17T12:53:57;99086.75;;;9.54;43.34
38880;BME280;25887;30.194;-97.880;2022-12-17T12:56:42;99085.88;;;9.54;43.56
38880;BME280;25887;30.194;-97.880;2022-12-17T12:59:27;99081.63;;;9.54;43.84
38880;BME280;25887;30.194;-97.880;2022-12-17T13:02:23;99083.34;;;9.55;43.50
38880;BME280;25887;30.194;-97.880;2022-12-17T13:05:26;99079.06;;;9.56;43.36
38880;BME280;25887;30.194;-97.880;2022-12-17T13:10:33;99078.22;;;9.57;43.75
38880;BME280;25887;30.194;-97.880;2022-12-17T13:13:23;99083.34;;;9.57;44.07
38880;BME280;25887;30.194;-97.880;2022-12-17T13:15:46;99074.00;;;9.59;43.78
38880;BME280;25887;30.194;-97.880;2022-12-17T13:20:42;99059.47;;;9.59;43.46
38880;BME280;25887;30.194;-97.880;2022-12-17T13:25:34;99075.72;;;9.60;43.55
38880;BME280;25887;30.194;-97.880;2022-12-17T13:28:00;99072.31;;;9.61;44.05
38880;BME280;25887;30.194;-97.880;2022-12-17T13:30:30;99067.19;;;9.61;43.80
38880;BME280;25887;30.194;-97.880;2022-12-17T13:33:12;99074.03;;;9.62;43.72
38880;BME280;25887;30.194;-97.880;2022-12-17T13:38:25;99074.88;;;9.61;43.78
38880;BME280;25887;30.194;-97.880;2022-12-17T13:41:10;99081.75;;;9.63;43.90
38880;BME280;25887;30.194;-97.880;2022-12-17T13:43:38;99086.91;;;9.65;43.71
38880;BME280;25887;30.194;-97.880;2022-12-17T13:46:15;99084.38;;;9.66;43.60
38880;BME280;25887;30.194;-97.880;2022-12-17T13:48:50;99081.81;;;9.66;43.59
38880;BME280;25887;30.194;-97.880;2022-12-17T13:51:16;99079.28;;;9.68;43.52
38880;BME280;25887;30.194;-97.880;2022-12-17T13:53:50;99076.72;;;9.68;43.38
38880;BME280;25887;30.194;-97.880;2022-12-17T13:56:20;99083.56;;;9.69;43.59
38880;BME280;25887;30.194;-97.880;2022-12-17T13:58:49;99083.56;;;9.69;43.64
38880;BME280;25887;30.194;-97.880;2022-12-17T14:01:15;99086.13;;;9.69;43.51
38880;BME280;25887;30.194;-97.880;2022-12-17T14:03:54;99083.56;;;9.69;43.62
38880;BME280;25887;30.194;-97.880;2022-12-17T14:06:20;99095.53;;;9.68;43.47
38880;BME280;25887;30.194;-97.880;2022-12-17T14:08:48;99103.25;;;9.70;43.45
38880;BME280;25887;30.194;-97.880;2022-12-17T14:11:15;99109.25;;;9.72;43.75
38880;BME280;25887;30.194;-97.880;2022-12-17T14:13:59;99114.38;;;9.72;43.47
38880;BME280;25887;30.194;-97.880;2022-12-17T14:16:26;99121.28;;;9.74;43.90
38880;BME280;25887;30.194;-97.880;2022-12-17T14:18:53;99126.44;;;9.76;43.85
38880;BME280;25887;30.194;-97.880;2022-12-17T14:21:19;99140.13;;;9.76;43.80
38880;BME280;25887;30.194;-97.880;2022-12-17T14:23:46;99146.97;;;9.77;43.60
38880;BME280;25887;30.194;-97.880;2022-12-17T14:26:13;99159.81;;;9.79;44.37
38880;BME280;25887;30.194;-97.880;2022-12-17T14:28:48;99165.88;;;9.81;44.26
38880;BME280;25887;30.194;-97.880;2022-12-17T14:31:16;99176.16;;;9.83;43.84
38880;BME280;25887;30.194;-97.880;2022-12-17T14:33:43;99181.31;;;9.84;43.95
38880;BME280;25887;30.194;-97.880;2022-12-17T14:38:59;99195.88;;;9.88;43.67
38880;BME280;25887;30.194;-97.880;2022-12-17T14:41:26;99204.50;;;9.90;43.83
38880;BME280;25887;30.194;-97.880;2022-12-17T14:44:18;99208.81;;;9.93;43.93
38880;BME280;25887;30.194;-97.880;2022-12-17T14:46:44;99216.53;;;9.94;43.47
38880;BME280;25887;30.194;-97.880;2022-12-17T14:49:11;99224.28;;;9.97;43.60
38880;BME280;25887;30.194;-97.880;2022-12-17T14:51:41;99229.47;;;10.02;43.64
38880;BME280;25887;30.194;-97.880;2022-12-17T14:56:40;99231.31;;;10.11;44.02
38880;BME280;25887;30.194;-97.880;2022-12-17T14:59:21;99239.97;;;10.14;44.00
38880;BME280;25887;30.194;-97.880;2022-12-17T15:01:48;99241.75;;;10.20;43.58
38880;BME280;25887;30.194;-97.880;2022-12-17T15:04:14;99249.53;;;10.23;44.13
38880;BME280;25887;30.194;-97.880;2022-12-17T15:06:41;99250.47;;;10.28;43.75
38880;BME280;25887;30.194;-97.880;2022-12-17T15:09:08;99247.09;;;10.32;43.56
38880;BME280;25887;30.194;-97.880;2022-12-17T15:11:35;99246.31;;;10.36;43.75
38880;BME280;25887;30.194;-97.880;2022-12-17T15:14:00;99260.94;;;10.42;43.63
38880;BME280;25887;30.194;-97.880;2022-12-17T15:16:26;99256.75;;;10.47;43.51
38880;BME280;25887;30.194;-97.880;2022-12-17T15:18:52;99259.41;;;10.53;43.72
38880;BME280;25887;30.194;-97.880;2022-12-17T15:21:18;99259.50;;;10.59;43.69
38880;BME280;25887;30.194;-97.880;2022-12-17T15:23:44;99268.16;;;10.67;43.75
38880;BME280;25887;30.194;-97.880;2022-12-17T15:26:11;99270.81;;;10.73;43.55
38880;BME280;25887;30.194;-97.880;2022-12-17T15:28:39;99268.31;;;10.79;43.44
38880;BME280;25887;30.194;-97.880;2022-12-17T15:31:08;99281.28;;;10.87;43.60